sensor_id;sensor_type;location;lat;lon;timestamp;P1;durP1;ratioP1;P2;durP2;ratioP2
4428;SDS011;2227;47.810;8.810;2024-01-10T04:49:56;708.65;;;392.58;;
4428;SDS011;2227;47.810;8.810;2024-01-10T04:52:23;703.65;;;388.33;;
4428;SDS011;2227;47.810;8.810;2024-01-10T04:54:50;701.25;;;396.10;;
4428;SDS011;2227;47.810;8.810;2024-01-10T04:57:16;698.67;;;386.05;;
4428;SDS011;2227;47.810;8.810;2024-01-10T04:59:43;705.05;;;388.17;;
4428;SDS011;2227;47.810;8.810;2024-01-10T05:02:10;700.45;;;385.83;;
4428;SDS011;2227;47.810;8.810;2024-01-10T05:04:37;701.88;;;387.70;;
4428;SDS011;2227;47.810;8.810;2024-01-10T05:07:04;699.55;;;386.65;;
4428;SDS011;2227;47.810;8.810;2024-01-10T05:09:31;704.65;;;389.40;;
4428;SDS011;2227;47.810;8.810;2024-01-10T05:11:58;702.67;;;385.52;;
4428;SDS011;2227;47.810;8.810;2024-01-10T05:14:25;714.20;;;391.52;;
4428;SDS011;2227;47.810;8.810;2024-01-10T05:16:51;702.85;;;387.65;;
4428;SDS011;2227;47.810;8.810;2024-01-10T05:19:20;703.35;;;390.65;;
4428;SDS011;2227;47.810;8.810;2024-01-10T05:21:46;705.65;;;388.73;;
4428;SDS011;2227;47.810;8.810;2024-01-10T05:24:13;700.08;;;389.38;;
4428;SDS011;2227;47.810;8.810;2024-01-10T05:26:40;698.20;;;384.43;;
4428;SDS011;2227;47.810;8.810;2024-01-10T05:29:07;704.50;;;388.98;;
4428;SDS011;2227;47.810;8.810;2024-01-10T05:31:34;701.15;;;389.10;;
4428;SDS011;2227;47.810;8.810;2024-01-10T05:34:01;703.95;;;391.45;;
4428;SDS011;2227;47.810;8.810;2024-01-10T05:36:28;701.22;;;383.45;;
4428;SDS011;2227;47.810;8.810;2024-01-10T05:38:55;702.15;;;384.50;;
4428;SDS011;2227;47.810;8.810;2024-01-10T05:41:21;705.47;;;383.45;;
4428;SDS011;2227;47.810;8.810;2024-01-10T05:43:48;705.28;;;380.05;;
4428;SDS011;2227;47.810;8.810;2024-01-10T05:46:15;698.30;;;381.85;;
4428;SDS011;2227;47.810;8.810;2024-01-10T05:48:42;700.90;;;380.27;;
4428;SDS011;2227;47.810;8.810;2024-01-10T05:51:10;702.03;;;379.17;;
4428;SDS011;2227;47.810;8.810;2024-01-10T05:53:37;699.47;;;379.37;;
4428;SDS011;2227;47.810;8.810;2024-01-10T05:56:05;700.97;;;380.50;;
4428;SDS011;2227;47.810;8.810;2024-01-10T05:58:32;697.45;;;376.88;;
4428;SDS011;2227;47.810;8.810;2024-01-10T06:00:59;698.42;;;378.20;;
4428;SDS011;2227;47.810;8.810;2024-01-10T06:03:26;701.83;;;382.00;;
4428;SDS011;2227;47.810;8.810;2024-01-10T06:05:53;706.58;;;379.35;;
4428;SDS011;2227;47.810;8.810;2024-01-10T06:08:19;702.20;;;385.63;;
4428;SDS011;2227;47.810;8.810;2024-01-10T06:10:49;702.15;;;381.42;;
4428;SDS011;2227;47.810;8.810;2024-01-10T06:13:17;703.35;;;381.42;;
4428;SDS011;2227;47.810;8.810;2024-01-10T06:15:44;701.67;;;385.83;;
4428;SDS011;2227;47.810;8.810;2024-01-10T06:18:10;704.92;;;387.40;;
4428;SDS011;2227;47.810;8.810;2024-01-10T06:20:37;703.75;;;385.48;;
4428;SDS011;2227;47.810;8.810;2024-01-10T06:23:05;707.67;;;388.38;;
4428;SDS011;2227;47.810;8.810;2024-01-10T06:25:32;705.97;;;390.25;;
4428;SDS011;2227;47.810;8.810;2024-01-10T06:27:59;708.90;;;393.55;;
4428;SDS011;2227;47.810;8.810;2024-01-10T06:30:25;707.45;;;390.50;;
4428;SDS011;2227;47.810;8.810;2024-01-10T06:32:52;706.23;;;387.57;;
4428;SDS011;2227;47.810;8.810;2024-01-10T06:35:19;707.08;;;388.30;;
4428;SDS011;2227;47.810;8.810;2024-01-10T06:37:46;707.63;;;389.17;;
4428;SDS011;2227;47.810;8.810;2024-01-10T06:40:13;710.65;;;391.35;;
4428;SDS011;2227;47.810;8.810;2024-01-10T06:42:40;709.45;;;391.98;;
4428;SDS011;2227;47.810;8.810;2024-01-10T06:45:07;709.58;;;390.52;;
4428;SDS011;2227;47.810;8.810;2024-01-10T06:47:35;710.57;;;395.23;;
4428;SDS011;2227;47.810;8.810;2024-01-10T06:50:02;710.30;;;392.07;;
4428;SDS011;2227;47.810;8.810;2024-01-10T06:52:31;710.38;;;393.98;;
4428;SDS011;2227;47.810;8.810;2024-01-10T06:54:58;712.17;;;392.98;;
4428;SDS011;2227;47.810;8.810;2024-01-10T06:57:25;710.70;;;389.80;;
4428;SDS011;2227;47.810;8.810;2024-01-10T06:59:53;710.45;;;391.92;;
4428;SDS011;2227;47.810;8.810;2024-01-10T07:02:19;711.15;;;392.88;;
4428;SDS011;2227;47.810;8.810;2024-01-10T07:04:46;712.38;;;390.35;;
4428;SDS011;2227;47.810;8.810;2024-01-10T07:07:14;714.75;;;393.80;;
4428;SDS011;2227;47.810;8.810;2024-01-10T07:09:43;713.35;;;392.83;;
4428;SDS011;2227;47.810;8.810;2024-01-10T07:12:10;711.65;;;390.98;;
4428;SDS011;2227;47.810;8.810;2024-01-10T07:14:37;714.53;;;390.85;;
4428;SDS011;2227;47.810;8.810;2024-01-10T07:17:03;715.97;;;398.02;;
4428;SDS011;2227;47.810;8.810;2024-01-10T07:19:30;715.25;;;396.60;;
4428;SDS011;2227;47.810;8.810;2024-01-10T07:21:57;715.05;;;394.35;;
4428;SDS011;2227;47.810;8.810;2024-01-10T07:24:24;713.40;;;392.35;;
4428;SDS011;2227;47.810;8.810;2024-01-10T07:26:50;711.85;;;395.17;;
4428;SDS011;2227;47.810;8.810;2024-01-10T07:29:17;713.22;;;393.73;;
4428;SDS011;2227;47.810;8.810;2024-01-10T07:31:46;712.08;;;391.20;;
4428;SDS011;2227;47.810;8.810;2024-01-10T07:34:14;716.03;;;392.63;;
4428;SDS011;2227;47.810;8.810;2024-01-10T07:36:41;715.28;;;391.65;;
4428;SDS011;2227;47.810;8.810;2024-01-10T07:39:09;716.33;;;396.40;;
4428;SDS011;2227;47.810;8.810;2024-01-10T07:41:36;716.35;;;393.95;;
4428;SDS011;2227;47.810;8.810;2024-01-10T07:44:03;715.90;;;395.13;;
4428;SDS011;2227;47.810;8.810;2024-01-10T07:46:29;717.55;;;396.83;;
4428;SDS011;2227;47.810;8.810;2024-01-10T07:48:56;718.60;;;399.25;;
4428;SDS011;2227;47.810;8.810;2024-01-10T07:51:23;717.72;;;397.27;;
4428;SDS011;2227;47.810;8.810;2024-01-10T07:53:50;721.17;;;398.92;;
4428;SDS011;2227;47.810;8.810;2024-01-10T07:56:17;720.38;;;397.25;;
4428;SDS011;2227;47.810;8.810;2024-01-10T07:58:46;716.73;;;395.90;;
4428;SDS011;2227;47.810;8.810;2024-01-10T08:01:14;719.67;;;398.58;;
4428;SDS011;2227;47.810;8.810;2024-01-10T08:03:41;720.10;;;399.83;;
4428;SDS011;2227;47.810;8.810;2024-01-10T08:06:08;719.83;;;398.97;;
4428;SDS011;2227;47.810;8.810;2024-01-10T08:08:46;724.25;;;402.70;;
4428;SDS011;2227;47.810;8.810;2024-01-10T08:11:12;721.60;;;400.83;;
4428;SDS011;2227;47.810;8.810;2024-01-10T08:13:39;720.42;;;405.25;;
4428;SDS011;2227;47.810;8.810;2024-01-10T08:16:06;725.85;;;403.77;;
4428;SDS011;2227;47.810;8.810;2024-01-10T08:18:34;725.50;;;405.40;;
4428;SDS011;2227;47.810;8.810;2024-01-10T08:21:01;729.53;;;408.23;;
4428;SDS011;2227;47.810;8.810;2024-01-10T08:23:30;729.53;;;406.17;;
4428;SDS011;2227;47.810;8.810;2024-01-10T08:25:57;728.20;;;410.88;;
4428;SDS011;2227;47.810;8.810;2024-01-10T08:28:24;731.78;;;414.40;;
4428;SDS011;2227;47.810;8.810;2024-01-10T08:30:52;717.60;;;405.33;;
4428;SDS011;2227;47.810;8.810;2024-01-10T08:33:25;720.20;;;408.10;;
4428;SDS011;2227;47.810;8.810;2024-01-10T08:35:52;725.28;;;409.95;;
4428;SDS011;2227;47.810;8.810;2024-01-10T08:38:20;727.85;;;411.58;;
4428;SDS011;2227;47.810;8.810;2024-01-10T08:40:47;727.42;;;415.08;;
4428;SDS011;2227;47.810;8.810;2024-01-10T08:43:14;724.75;;;411.17;;
4428;SDS011;2227;47.810;8.810;2024-01-10T08:45:40;720.17;;;411.97;;
4428;SDS011;2227;47.810;8.810;2024-01-10T08:48:07;729.80;;;415.20;;
4428;SDS011;2227;47.810;8.810;2024-01-10T08:50:36;730.13;;;416.58;;
4428;SDS011;2227;47.810;8.810;2024-01-10T08:53:03;730.08;;;418.55;;
4428;SDS011;2227;47.810;8.810;2024-01-10T08:55:31;728.85;;;420.35;;
4428;SDS011;2227;47.810;8.810;2024-01-10T08:58:00;729.37;;;420.63;;
4428;SDS011;2227;47.810;8.810;2024-01-10T09:00:27;731.72;;;421.40;;
4428;SDS011;2227;47.810;8.810;2024-01-10T09:02:54;731.58;;;426.52;;
4428;SDS011;2227;47.810;8.810;2024-01-10T09:05:21;732.50;;;422.88;;
4428;SDS011;2227;47.810;8.810;2024-01-10T09:07:49;733.10;;;429.95;;
4428;SDS011;2227;47.810;8.810;2024-01-10T09:10:16;732.75;;;433.20;;
4428;SDS011;2227;47.810;8.810;2024-01-10T09:12:43;726.05;;;423.15;;
4428;SDS011;2227;47.810;8.810;2024-01-10T09:15:12;725.08;;;425.50;;
4428;SDS011;2227;47.810;8.810;2024-01-10T09:17:41;727.30;;;429.50;;
4428;SDS011;2227;47.810;8.810;2024-01-10T09:20:09;725.55;;;430.05;;
4428;SDS011;2227;47.810;8.810;2024-01-10T09:22:38;723.63;;;433.58;;
4428;SDS011;2227;47.810;8.810;2024-01-10T09:25:05;728.35;;;436.27;;
4428;SDS011;2227;47.810;8.810;2024-01-10T09:27:33;732.10;;;439.05;;
4428;SDS011;2227;47.810;8.810;2024-01-10T09:30:00;730.28;;;434.02;;
4428;SDS011;2227;47.810;8.810;2024-01-10T09:32:34;725.45;;;430.67;;
4428;SDS011;2227;47.810;8.810;2024-01-10T09:35:03;724.20;;;435.90;;
4428;SDS011;2227;47.810;8.810;2024-01-10T09:37:30;731.35;;;448.48;;
4428;SDS011;2227;47.810;8.810;2024-01-10T09:39:57;731.30;;;443.25;;
4428;SDS011;2227;47.810;8.810;2024-01-10T09:42:24;732.83;;;441.83;;
4428;SDS011;2227;47.810;8.810;2024-01-10T09:44:59;730.70;;;445.70;;
4428;SDS011;2227;47.810;8.810;2024-01-10T09:47:26;731.45;;;445.77;;
4428;SDS011;2227;47.810;8.810;2024-01-10T09:49:54;731.88;;;447.52;;
4428;SDS011;2227;47.810;8.810;2024-01-10T09:52:27;736.90;;;449.23;;
4428;SDS011;2227;47.810;8.810;2024-01-10T09:54:56;735.90;;;449.17;;
4428;SDS011;2227;47.810;8.810;2024-01-10T09:57:26;737.28;;;454.00;;
4428;SDS011;2227;47.810;8.810;2024-01-10T09:59:53;736.38;;;452.85;;
4428;SDS011;2227;47.810;8.810;2024-01-10T10:02:23;751.65;;;455.13;;
4428;SDS011;2227;47.810;8.810;2024-01-10T10:04:56;741.58;;;455.55;;
4428;SDS011;2227;47.810;8.810;2024-01-10T10:07:30;738.50;;;447.43;;
4428;SDS011;2227;47.810;8.810;2024-01-10T10:09:57;739.67;;;454.45;;
4428;SDS011;2227;47.810;8.810;2024-01-10T10:12:43;736.42;;;447.52;;
4428;SDS011;2227;47.810;8.810;2024-01-10T10:15:23;738.37;;;451.97;;
4428;SDS011;2227;47.810;8.810;2024-01-10T10:17:54;737.47;;;455.70;;
4428;SDS011;2227;47.810;8.810;2024-01-10T10:20:25;742.07;;;459.33;;
4428;SDS011;2227;47.810;8.810;2024-01-10T10:23:04;742.53;;;469.77;;
4428;SDS011;2227;47.810;8.810;2024-01-10T10:25:34;742.83;;;455.73;;
4428;SDS011;2227;47.810;8.810;2024-01-10T10:28:04;744.60;;;460.23;;
4428;SDS011;2227;47.810;8.810;2024-01-10T10:30:33;745.92;;;457.33;;
4428;SDS011;2227;47.810;8.810;2024-01-10T10:33:03;741.60;;;450.48;;
4428;SDS011;2227;47.810;8.810;2024-01-10T10:35:34;746.17;;;456.33;;
4428;SDS011;2227;47.810;8.810;2024-01-10T10:38:07;756.90;;;471.90;;
4428;SDS011;2227;47.810;8.810;2024-01-10T10:40:37;745.72;;;461.83;;
4428;SDS011;2227;47.810;8.810;2024-01-10T10:43:05;745.23;;;459.77;;
4428;SDS011;2227;47.810;8.810;2024-01-10T10:45:38;740.92;;;457.65;;
4428;SDS011;2227;47.810;8.810;2024-01-10T10:48:05;741.65;;;458.55;;
4428;SDS011;2227;47.810;8.810;2024-01-10T10:50:36;742.58;;;456.15;;
4428;SDS011;2227;47.810;8.810;2024-01-10T10:53:03;741.65;;;456.38;;
4428;SDS011;2227;47.810;8.810;2024-01-10T10:55:30;743.83;;;459.92;;
4428;SDS011;2227;47.810;8.810;2024-01-10T10:57:59;743.90;;;460.80;;
4428;SDS011;2227;47.810;8.810;2024-01-10T11:00:37;743.90;;;459.33;;
4428;SDS011;2227;47.810;8.810;2024-01-10T11:03:05;745.65;;;463.92;;
4428;SDS011;2227;47.810;8.810;2024-01-10T11:05:36;748.33;;;469.65;;
4428;SDS011;2227;47.810;8.810;2024-01-10T11:08:08;745.38;;;467.80;;
4428;SDS011;2227;47.810;8.810;2024-01-10T11:10:37;750.10;;;468.50;;
4428;SDS011;2227;47.810;8.810;2024-01-10T11:16:23;751.22;;;471.13;;
4428;SDS011;2227;47.810;8.810;2024-01-10T11:19:22;748.05;;;471.83;;
4428;SDS011;2227;47.810;8.810;2024-01-10T11:22:03;753.80;;;472.05;;
4428;SDS011;2227;47.810;8.810;2024-01-10T11:24:42;752.60;;;473.67;;
4428;SDS011;2227;47.810;8.810;2024-01-10T11:29:39;751.58;;;477.13;;
4428;SDS011;2227;47.810;8.810;2024-01-10T11:32:07;747.45;;;470.70;;
4428;SDS011;2227;47.810;8.810;2024-01-10T11:37:19;753.63;;;477.02;;
4428;SDS011;2227;47.810;8.810;2024-01-10T11:39:46;749.53;;;472.85;;
4428;SDS011;2227;47.810;8.810;2024-01-10T11:42:21;751.78;;;472.90;;
4428;SDS011;2227;47.810;8.810;2024-01-10T11:45:06;750.78;;;473.33;;
4428;SDS011;2227;47.810;8.810;2024-01-10T11:47:34;754.72;;;480.08;;
4428;SDS011;2227;47.810;8.810;2024-01-10T11:50:06;755.08;;;478.38;;
4428;SDS011;2227;47.810;8.810;2024-01-10T11:52:34;753.28;;;476.13;;
4428;SDS011;2227;47.810;8.810;2024-01-10T11:55:03;754.60;;;477.40;;
4428;SDS011;2227;47.810;8.810;2024-01-10T11:57:33;754.05;;;474.10;;
4428;SDS011;2227;47.810;8.810;2024-01-10T12:00:01;762.10;;;488.20;;
4428;SDS011;2227;47.810;8.810;2024-01-10T12:02:31;766.92;;;493.95;;
4428;SDS011;2227;47.810;8.810;2024-01-10T12:04:59;754.72;;;477.35;;
4428;SDS011;2227;47.810;8.810;2024-01-10T12:07:26;754.92;;;478.00;;
4428;SDS011;2227;47.810;8.810;2024-01-10T12:09:54;751.45;;;472.17;;
4428;SDS011;2227;47.810;8.810;2024-01-10T12:12:21;748.73;;;468.17;;
4428;SDS011;2227;47.810;8.810;2024-01-10T12:14:47;750.42;;;477.88;;
4428;SDS011;2227;47.810;8.810;2024-01-10T12:17:17;750.25;;;479.00;;
4428;SDS011;2227;47.810;8.810;2024-01-10T12:19:45;751.75;;;472.67;;
4428;SDS011;2227;47.810;8.810;2024-01-10T12:22:15;754.20;;;473.88;;
4428;SDS011;2227;47.810;8.810;2024-01-10T12:24:43;754.35;;;479.33;;
4428;SDS011;2227;47.810;8.810;2024-01-10T12:27:16;751.42;;;475.85;;
4428;SDS011;2227;47.810;8.810;2024-01-10T12:29:47;751.63;;;476.93;;
4428;SDS011;2227;47.810;8.810;2024-01-10T12:32:16;758.20;;;490.10;;
4428;SDS011;2227;47.810;8.810;2024-01-10T12:34:45;753.87;;;476.37;;
4428;SDS011;2227;47.810;8.810;2024-01-10T12:37:11;751.30;;;475.40;;
4428;SDS011;2227;47.810;8.810;2024-01-10T12:39:38;751.28;;;472.33;;
4428;SDS011;2227;47.810;8.810;2024-01-10T12:42:05;753.15;;;476.63;;
4428;SDS011;2227;47.810;8.810;2024-01-10T12:44:32;753.92;;;479.30;;
4428;SDS011;2227;47.810;8.810;2024-01-10T12:47:00;754.85;;;478.52;;
4428;SDS011;2227;47.810;8.810;2024-01-10T12:49:27;756.80;;;480.25;;
4428;SDS011;2227;47.810;8.810;2024-01-10T12:51:53;757.80;;;482.63;;
4428;SDS011;2227;47.810;8.810;2024-01-10T12:54:20;755.10;;;484.27;;
4428;SDS011;2227;47.810;8.810;2024-01-10T12:56:47;760.08;;;483.00;;
4428;SDS011;2227;47.810;8.810;2024-01-10T12:59:14;759.05;;;486.67;;
4428;SDS011;2227;47.810;8.810;2024-01-10T13:01:41;754.97;;;480.45;;
4428;SDS011;2227;47.810;8.810;2024-01-10T13:04:08;755.67;;;478.25;;
4428;SDS011;2227;47.810;8.810;2024-01-10T13:06:36;755.83;;;480.05;;
4428;SDS011;2227;47.810;8.810;2024-01-10T13:09:02;757.60;;;482.55;;
4428;SDS011;2227;47.810;8.810;2024-01-10T13:11:30;757.25;;;477.63;;
4428;SDS011;2227;47.810;8.810;2024-01-10T13:13:57;778.20;;;488.42;;
4428;SDS011;2227;47.810;8.810;2024-01-10T13:16:24;754.92;;;472.63;;
4428;SDS011;2227;47.810;8.810;2024-01-10T13:18:51;752.42;;;470.17;;
4428;SDS011;2227;47.810;8.810;2024-01-10T13:21:20;751.70;;;470.70;;
4428;SDS011;2227;47.810;8.810;2024-01-10T13:23:46;750.10;;;466.65;;
4428;SDS011;2227;47.810;8.810;2024-01-10T13:26:13;749.95;;;465.27;;
4428;SDS011;2227;47.810;8.810;2024-01-10T13:28:41;747.50;;;455.67;;
4428;SDS011;2227;47.810;8.810;2024-01-10T13:31:09;745.28;;;451.65;;
4428;SDS011;2227;47.810;8.810;2024-01-10T13:33:36;745.70;;;453.92;;
4428;SDS011;2227;47.810;8.810;2024-01-10T13:36:12;746.15;;;454.58;;
4428;SDS011;2227;47.810;8.810;2024-01-10T13:38:39;741.50;;;430.52;;
4428;SDS011;2227;47.810;8.810;2024-01-10T13:41:06;734.28;;;427.30;;
4428;SDS011;2227;47.810;8.810;2024-01-10T13:43:33;733.10;;;425.25;;
4428;SDS011;2227;47.810;8.810;2024-01-10T13:46:00;734.80;;;435.80;;
4428;SDS011;2227;47.810;8.810;2024-01-10T13:48:31;734.15;;;433.13;;
4428;SDS011;2227;47.810;8.810;2024-01-10T13:50:58;738.80;;;436.73;;
4428;SDS011;2227;47.810;8.810;2024-01-10T13:53:25;735.72;;;425.80;;
4428;SDS011;2227;47.810;8.810;2024-01-10T13:55:52;733.58;;;426.77;;
4428;SDS011;2227;47.810;8.810;2024-01-10T13:58:18;742.15;;;430.85;;
4428;SDS011;2227;47.810;8.810;2024-01-10T14:00:45;739.27;;;421.00;;
4428;SDS011;2227;47.810;8.810;2024-01-10T14:03:13;739.00;;;419.08;;
4428;SDS011;2227;47.810;8.810;2024-01-10T14:05:40;735.35;;;415.10;;
4428;SDS011;2227;47.810;8.810;2024-01-10T14:08:07;740.72;;;423.45;;
4428;SDS011;2227;47.810;8.810;2024-01-10T14:10:37;737.53;;;427.67;;
4428;SDS011;2227;47.810;8.810;2024-01-10T14:13:05;733.33;;;428.27;;
4428;SDS011;2227;47.810;8.810;2024-01-10T14:15:33;736.70;;;432.80;;
4428;SDS011;2227;47.810;8.810;2024-01-10T14:18:00;733.50;;;437.85;;
4428;SDS011;2227;47.810;8.810;2024-01-10T14:20:27;738.60;;;431.40;;
4428;SDS011;2227;47.810;8.810;2024-01-10T14:22:53;736.55;;;435.23;;
4428;SDS011;2227;47.810;8.810;2024-01-10T14:25:20;741.15;;;428.95;;
4428;SDS011;2227;47.810;8.810;2024-01-10T14:27:47;740.13;;;430.40;;
4428;SDS011;2227;47.810;8.810;2024-01-10T14:30:14;736.22;;;429.13;;
4428;SDS011;2227;47.810;8.810;2024-01-10T14:32:42;734.42;;;434.08;;
